sensor_id;sensor_type;location;lat;lon;timestamp;P1;durP1;ratioP1;P2;durP2;ratioP2
51738;SDS011;37815;52.692;6.226;2024-03-02T00:01:36;3.00;;;1.58;;
51738;SDS011;37815;52.692;6.226;2024-03-02T00:06:36;3.15;;;1.58;;
51738;SDS011;37815;52.692;6.226;2024-03-02T00:11:37;2.13;;;1.38;;
51738;SDS011;37815;52.692;6.226;2024-03-02T00:16:38;2.33;;;1.50;;
51738;SDS011;37815;52.692;6.226;2024-03-02T00:21:39;3.53;;;1.80;;
51738;SDS011;37815;52.692;6.226;2024-03-02T00:26:40;2.53;;;1.40;;
51738;SDS011;37815;52.692;6.226;2024-03-02T00:31:44;2.60;;;1.65;;
51738;SDS011;37815;52.692;6.226;2024-03-02T00:36:46;2.95;;;1.60;;
51738;SDS011;37815;52.692;6.226;2024-03-02T00:41:46;3.53;;;1.65;;
51738;SDS011;37815;52.692;6.226;2024-03-02T00:46:47;2.58;;;1.58;;
51738;SDS011;37815;52.692;6.226;2024-03-02T00:51:48;3.38;;;1.90;;
51738;SDS011;37815;52.692;6.226;2024-03-02T00:56:54;3.13;;;1.80;;
51738;SDS011;37815;52.692;6.226;2024-03-02T01:01:56;2.17;;;1.48;;
51738;SDS011;37815;52.692;6.226;2024-03-02T01:06:56;3.00;;;1.70;;
51738;SDS011;37815;52.692;6.226;2024-03-02T01:11:58;3.60;;;1.42;;
51738;SDS011;37815;52.692;6.226;2024-03-02T01:16:59;2.20;;;1.50;;
51738;SDS011;37815;52.692;6.226;2024-03-02T01:21:59;1.88;;;1.40;;
51738;SDS011;37815;52.692;6.226;2024-03-02T01:27:00;2.78;;;1.90;;
51738;SDS011;37815;52.692;6.226;2024-03-02T01:32:01;2.60;;;1.52;;
51738;SDS011;37815;52.692;6.226;2024-03-02T01:37:01;2.97;;;1.85;;
51738;SDS011;37815;52.692;6.226;2024-03-02T01:42:02;3.17;;;1.65;;
51738;SDS011;37815;52.692;6.226;2024-03-02T01:47:03;5.43;;;2.05;;
51738;SDS011;37815;52.692;6.226;2024-03-02T01:52:03;3.20;;;1.48;;
51738;SDS011;37815;52.692;6.226;2024-03-02T01:57:04;2.83;;;1.58;;
51738;SDS011;37815;52.692;6.226;2024-03-02T02:02:05;2.65;;;1.67;;
51738;SDS011;37815;52.692;6.226;2024-03-02T02:07:05;2.47;;;1.52;;
51738;SDS011;37815;52.692;6.226;2024-03-02T02:12:06;2.22;;;1.48;;
51738;SDS011;37815;52.692;6.226;2024-03-02T02:17:07;2.03;;;1.20;;
51738;SDS011;37815;52.692;6.226;2024-03-02T02:22:11;2.65;;;1.40;;
51738;SDS011;37815;52.692;6.226;2024-03-02T02:27:12;1.75;;;1.20;;
51738;SDS011;37815;52.692;6.226;2024-03-02T02:32:15;2.30;;;1.10;;
51738;SDS011;37815;52.692;6.226;2024-03-02T02:37:15;1.73;;;1.33;;
51738;SDS011;37815;52.692;6.226;2024-03-02T02:42:16;2.60;;;1.33;;
51738;SDS011;37815;52.692;6.226;2024-03-02T02:47:16;1.80;;;1.08;;
51738;SDS011;37815;52.692;6.226;2024-03-02T02:52:17;2.53;;;1.27;;
51738;SDS011;37815;52.692;6.226;2024-03-02T02:57:18;1.65;;;1.15;;
51738;SDS011;37815;52.692;6.226;2024-03-02T03:02:19;2.60;;;1.40;;
51738;SDS011;37815;52.692;6.226;2024-03-02T03:07:19;1.75;;;1.15;;
51738;SDS011;37815;52.692;6.226;2024-03-02T03:12:20;1.25;;;0.95;;
51738;SDS011;37815;52.692;6.226;2024-03-02T03:17:23;2.13;;;1.20;;
51738;SDS011;37815;52.692;6.226;2024-03-02T03:22:24;2.00;;;1.20;;
51738;SDS011;37815;52.692;6.226;2024-03-02T03:27:25;2.00;;;1.00;;
51738;SDS011;37815;52.692;6.226;2024-03-02T03:32:26;1.73;;;1.23;;
51738;SDS011;37815;52.692;6.226;2024-03-02T03:37:27;1.30;;;1.08;;
51738;SDS011;37815;52.692;6.226;2024-03-02T03:42:32;2.45;;;1.30;;
51738;SDS011;37815;52.692;6.226;2024-03-02T03:47:33;1.60;;;1.17;;
51738;SDS011;37815;52.692;6.226;2024-03-02T03:52:33;2.20;;;1.10;;
51738;SDS011;37815;52.692;6.226;2024-03-02T03:57:34;1.60;;;1.30;;
51738;SDS011;37815;52.692;6.226;2024-03-02T04:02:35;1.50;;;0.90;;
51738;SDS011;37815;52.692;6.226;2024-03-02T04:07:39;2.92;;;1.10;;
51738;SDS011;37815;52.692;6.226;2024-03-02T04:12:43;1.98;;;1.13;;
51738;SDS011;37815;52.692;6.226;2024-03-02T04:17:43;2.90;;;1.55;;
51738;SDS011;37815;52.692;6.226;2024-03-02T04:22:44;1.65;;;1.00;;
51738;SDS011;37815;52.692;6.226;2024-03-02T04:27:44;1.20;;;0.95;;
51738;SDS011;37815;52.692;6.226;2024-03-02T04:32:45;2.75;;;1.20;;
51738;SDS011;37815;52.692;6.226;2024-03-02T04:37:49;1.20;;;0.93;;
51738;SDS011;37815;52.692;6.226;2024-03-02T04:42:49;1.80;;;0.80;;
51738;SDS011;37815;52.692;6.226;2024-03-02T04:47:50;1.33;;;0.80;;
51738;SDS011;37815;52.692;6.226;2024-03-02T04:52:50;1.80;;;1.00;;
51738;SDS011;37815;52.692;6.226;2024-03-02T04:57:51;1.25;;;0.90;;
51738;SDS011;37815;52.692;6.226;2024-03-02T05:02:54;1.63;;;0.85;;
51738;SDS011;37815;52.692;6.226;2024-03-02T05:07:55;3.10;;;0.95;;
51738;SDS011;37815;52.692;6.226;2024-03-02T05:12:55;0.93;;;0.68;;
51738;SDS011;37815;52.692;6.226;2024-03-02T05:17:59;0.90;;;0.80;;
51738;SDS011;37815;52.692;6.226;2024-03-02T05:23:00;1.15;;;0.63;;
51738;SDS011;37815;52.692;6.226;2024-03-02T05:28:00;1.27;;;0.70;;
51738;SDS011;37815;52.692;6.226;2024-03-02T05:33:01;1.15;;;0.77;;
51738;SDS011;37815;52.692;6.226;2024-03-02T05:38:01;1.88;;;0.90;;
51738;SDS011;37815;52.692;6.226;2024-03-02T05:43:02;1.42;;;0.70;;
51738;SDS011;37815;52.692;6.226;2024-03-02T05:48:03;5.13;;;0.95;;
51738;SDS011;37815;52.692;6.226;2024-03-02T05:53:04;1.38;;;0.88;;
51738;SDS011;37815;52.692;6.226;2024-03-02T05:58:04;0.93;;;0.70;;
51738;SDS011;37815;52.692;6.226;2024-03-02T06:03:23;1.77;;;0.70;;
51738;SDS011;37815;52.692;6.226;2024-03-02T06:08:24;1.00;;;0.70;;
51738;SDS011;37815;52.692;6.226;2024-03-02T06:13:25;0.82;;;0.60;;
51738;SDS011;37815;52.692;6.226;2024-03-02T06:18:26;0.85;;;0.68;;
51738;SDS011;37815;52.692;6.226;2024-03-02T06:23:27;0.95;;;0.60;;
51738;SDS011;37815;52.692;6.226;2024-03-02T06:28:28;1.25;;;0.80;;
51738;SDS011;37815;52.692;6.226;2024-03-02T06:33:29;0.73;;;0.60;;
51738;SDS011;37815;52.692;6.226;2024-03-02T06:38:29;1.48;;;0.60;;
51738;SDS011;37815;52.692;6.226;2024-03-02T06:43:32;1.20;;;0.63;;
51738;SDS011;37815;52.692;6.226;2024-03-02T06:48:32;0.60;;;0.52;;
51738;SDS011;37815;52.692;6.226;2024-03-02T06:53:33;0.70;;;0.50;;
51738;SDS011;37815;52.692;6.226;2024-03-02T06:58:33;0.80;;;0.40;;
51738;SDS011;37815;52.692;6.226;2024-03-02T07:03:34;0.73;;;0.50;;
51738;SDS011;37815;52.692;6.226;2024-03-02T07:08:35;2.05;;;0.60;;
51738;SDS011;37815;52.692;6.226;2024-03-02T07:13:35;1.10;;;0.60;;
51738;SDS011;37815;52.692;6.226;2024-03-02T07:18:36;1.02;;;0.77;;
51738;SDS011;37815;52.692;6.226;2024-03-02T07:23:45;2.58;;;0.60;;
51738;SDS011;37815;52.692;6.226;2024-03-02T07:28:46;0.80;;;0.60;;
51738;SDS011;37815;52.692;6.226;2024-03-02T07:33:47;0.93;;;0.40;;
51738;SDS011;37815;52.692;6.226;2024-03-02T07:38:48;0.80;;;0.50;;
51738;SDS011;37815;52.692;6.226;2024-03-02T07:43:50;0.88;;;0.50;;
51738;SDS011;37815;52.692;6.226;2024-03-02T07:48:51;0.57;;;0.45;;
51738;SDS011;37815;52.692;6.226;2024-03-02T07:53:52;1.45;;;0.50;;
51738;SDS011;37815;52.692;6.226;2024-03-02T07:58:53;0.93;;;0.50;;
51738;SDS011;37815;52.692;6.226;2024-03-02T08:03:54;0.73;;;0.45;;
51738;SDS011;37815;52.692;6.226;2024-03-02T08:08:57;1.50;;;0.50;;
51738;SDS011;37815;52.692;6.226;2024-03-02T08:13:58;0.82;;;0.55;;
51738;SDS011;37815;52.692;6.226;2024-03-02T08:18:59;0.50;;;0.40;;
51738;SDS011;37815;52.692;6.226;2024-03-02T08:23:59;1.75;;;0.47;;
51738;SDS011;37815;52.692;6.226;2024-03-02T08:29:00;0.60;;;0.40;;
51738;SDS011;37815;52.692;6.226;2024-03-02T08:34:03;0.95;;;0.40;;
51738;SDS011;37815;52.692;6.226;2024-03-02T08:39:04;0.70;;;0.40;;
51738;SDS011;37815;52.692;6.226;2024-03-02T08:44:07;1.05;;;0.50;;
51738;SDS011;37815;52.692;6.226;2024-03-02T08:49:08;0.35;;;0.30;;
51738;SDS011;37815;52.692;6.226;2024-03-02T08:54:08;0.82;;;0.32;;
51738;SDS011;37815;52.692;6.226;2024-03-02T08:59:09;2.10;;;0.47;;
51738;SDS011;37815;52.692;6.226;2024-03-02T09:04:09;0.50;;;0.38;;
51738;SDS011;37815;52.692;6.226;2024-03-02T09:09:10;1.52;;;0.65;;
51738;SDS011;37815;52.692;6.226;2024-03-02T09:14:11;3.25;;;0.73;;
51738;SDS011;37815;52.692;6.226;2024-03-02T09:19:11;0.80;;;0.30;;
51738;SDS011;37815;52.692;6.226;2024-03-02T09:24:12;3.75;;;0.63;;
51738;SDS011;37815;52.692;6.226;2024-03-02T09:29:13;0.90;;;0.40;;
51738;SDS011;37815;52.692;6.226;2024-03-02T09:34:13;0.63;;;0.40;;
51738;SDS011;37815;52.692;6.226;2024-03-02T09:39:15;0.43;;;0.40;;
51738;SDS011;37815;52.692;6.226;2024-03-02T09:44:17;0.45;;;0.40;;
51738;SDS011;37815;52.692;6.226;2024-03-02T09:49:18;1.55;;;0.60;;
51738;SDS011;37815;52.692;6.226;2024-03-02T09:54:18;0.90;;;0.50;;
51738;SDS011;37815;52.692;6.226;2024-03-02T09:59:19;0.82;;;0.50;;
51738;SDS011;37815;52.692;6.226;2024-03-02T10:04:20;3.55;;;0.68;;
51738;SDS011;37815;52.692;6.226;2024-03-02T10:09:27;1.38;;;0.75;;
51738;SDS011;37815;52.692;6.226;2024-03-02T10:14:29;0.85;;;0.38;;
51738;SDS011;37815;52.692;6.226;2024-03-02T10:19:29;0.75;;;0.40;;
51738;SDS011;37815;52.692;6.226;2024-03-02T10:24:36;0.60;;;0.47;;
51738;SDS011;37815;52.692;6.226;2024-03-02T10:29:46;1.60;;;0.60;;
51738;SDS011;37815;52.692;6.226;2024-03-02T10:34:47;1.92;;;0.50;;
51738;SDS011;37815;52.692;6.226;2024-03-02T10:39:49;1.50;;;0.30;;
51738;SDS011;37815;52.692;6.226;2024-03-02T10:44:52;1.27;;;0.30;;
51738;SDS011;37815;52.692;6.226;2024-03-02T10:49:53;3.58;;;0.55;;
51738;SDS011;37815;52.692;6.226;2024-03-02T10:54:55;1.70;;;0.40;;
51738;SDS011;37815;52.692;6.226;2024-03-02T10:59:56;1.67;;;0.40;;
51738;SDS011;37815;52.692;6.226;2024-03-02T11:05:02;0.55;;;0.30;;
51738;SDS011;37815;52.692;6.226;2024-03-02T11:10:07;2.30;;;0.50;;
51738;SDS011;37815;52.692;6.226;2024-03-02T11:15:11;1.42;;;0.50;;
51738;SDS011;37815;52.692;6.226;2024-03-02T11:20:18;1.23;;;0.22;;
51738;SDS011;37815;52.692;6.226;2024-03-02T11:25:27;1.60;;;0.30;;
51738;SDS011;37815;52.692;6.226;2024-03-02T11:35:35;1.77;;;0.40;;
51738;SDS011;37815;52.692;6.226;2024-03-02T11:40:38;1.23;;;0.35;;
51738;SDS011;37815;52.692;6.226;2024-03-02T11:45:41;0.95;;;0.30;;
51738;SDS011;37815;52.692;6.226;2024-03-02T11:50:47;0.75;;;0.50;;
51738;SDS011;37815;52.692;6.226;2024-03-02T11:55:50;2.17;;;0.40;;
51738;SDS011;37815;52.692;6.226;2024-03-02T12:00:52;2.88;;;0.50;;
51738;SDS011;37815;52.692;6.226;2024-03-02T12:05:55;1.75;;;0.60;;
51738;SDS011;37815;52.692;6.226;2024-03-02T12:10:59;1.65;;;0.40;;
51738;SDS011;37815;52.692;6.226;2024-03-02T12:16:02;1.60;;;0.30;;
51738;SDS011;37815;52.692;6.226;2024-03-02T12:21:02;1.27;;;0.50;;
51738;SDS011;37815;52.692;6.226;2024-03-02T12:26:04;1.33;;;0.40;;
51738;SDS011;37815;52.692;6.226;2024-03-02T12:31:06;0.88;;;0.40;;
51738;SDS011;37815;52.692;6.226;2024-03-02T12:36:10;1.70;;;0.30;;
51738;SDS011;37815;52.692;6.226;2024-03-02T12:41:16;0.80;;;0.50;;
51738;SDS011;37815;52.692;6.226;2024-03-02T12:46:18;1.35;;;0.50;;
51738;SDS011;37815;52.692;6.226;2024-03-02T12:51:19;1.92;;;0.60;;
51738;SDS011;37815;52.692;6.226;2024-03-02T12:56:19;2.45;;;0.45;;
51738;SDS011;37815;52.692;6.226;2024-03-02T13:01:20;0.93;;;0.60;;
51738;SDS011;37815;52.692;6.226;2024-03-02T13:06:21;1.27;;;0.50;;
51738;SDS011;37815;52.692;6.226;2024-03-02T13:11:22;0.63;;;0.40;;
51738;SDS011;37815;52.692;6.226;2024-03-02T13:16:24;1.83;;;0.52;;
51738;SDS011;37815;52.692;6.226;2024-03-02T13:21:26;0.68;;;0.40;;
51738;SDS011;37815;52.692;6.226;2024-03-02T13:26:26;3.67;;;0.43;;
51738;SDS011;37815;52.692;6.226;2024-03-02T13:31:27;1.45;;;0.68;;
51738;SDS011;37815;52.692;6.226;2024-03-02T13:36:28;1.70;;;0.50;;
51738;SDS011;37815;52.692;6.226;2024-03-02T13:41:28;1.17;;;0.80;;
51738;SDS011;37815;52.692;6.226;2024-03-02T13:46:29;3.97;;;1.10;;
51738;SDS011;37815;52.692;6.226;2024-03-02T13:51:29;3.35;;;1.33;;
51738;SDS011;37815;52.692;6.226;2024-03-02T13:56:31;2.92;;;1.20;;
51738;SDS011;37815;52.692;6.226;2024-03-02T14:01:32;2.53;;;1.60;;
51738;SDS011;37815;52.692;6.226;2024-03-02T14:06:33;3.38;;;1.50;;
51738;SDS011;37815;52.692;6.226;2024-03-02T14:11:34;2.72;;;1.13;;
51738;SDS011;37815;52.692;6.226;2024-03-02T14:16:35;2.13;;;1.15;;
51738;SDS011;37815;52.692;6.226;2024-03-02T14:21:36;2.35;;;1.30;;
51738;SDS011;37815;52.692;6.226;2024-03-02T14:26:37;1.88;;;1.20;;
51738;SDS011;37815;52.692;6.226;2024-03-02T14:31:37;2.05;;;1.30;;
51738;SDS011;37815;52.692;6.226;2024-03-02T14:36:38;3.67;;;1.40;;
51738;SDS011;37815;52.692;6.226;2024-03-02T14:41:39;3.92;;;1.63;;
51738;SDS011;37815;52.692;6.226;2024-03-02T14:46:40;3.13;;;1.48;;
51738;SDS011;37815;52.692;6.226;2024-03-02T14:51:42;3.10;;;1.98;;
51738;SDS011;37815;52.692;6.226;2024-03-02T14:56:44;3.65;;;1.90;;
51738;SDS011;37815;52.692;6.226;2024-03-02T15:01:47;3.28;;;1.80;;
51738;SDS011;37815;52.692;6.226;2024-03-02T15:06:48;3.35;;;2.20;;
51738;SDS011;37815;52.692;6.226;2024-03-02T15:11:49;3.90;;;1.70;;
51738;SDS011;37815;52.692;6.226;2024-03-02T15:16:49;2.75;;;1.90;;
51738;SDS011;37815;52.692;6.226;2024-03-02T15:21:50;4.07;;;2.00;;
51738;SDS011;37815;52.692;6.226;2024-03-02T15:26:50;2.63;;;1.75;;
51738;SDS011;37815;52.692;6.226;2024-03-02T15:31:51;3.72;;;1.63;;
51738;SDS011;37815;52.692;6.226;2024-03-02T15:36:52;1.67;;;1.33;;
51738;SDS011;37815;52.692;6.226;2024-03-02T15:41:52;2.90;;;1.38;;
51738;SDS011;37815;52.692;6.226;2024-03-02T15:46:53;3.70;;;1.42;;
51738;SDS011;37815;52.692;6.226;2024-03-02T15:51:53;3.45;;;1.27;;
51738;SDS011;37815;52.692;6.226;2024-03-02T15:56:54;3.10;;;1.45;;
51738;SDS011;37815;52.692;6.226;2024-03-02T16:01:55;3.20;;;1.30;;
51738;SDS011;37815;52.692;6.226;2024-03-02T16:06:57;2.20;;;1.10;;
51738;SDS011;37815;52.692;6.226;2024-03-02T16:11:58;2.47;;;1.10;;
51738;SDS011;37815;52.692;6.226;2024-03-02T16:16:58;4.03;;;0.88;;
51738;SDS011;37815;52.692;6.226;2024-03-02T16:21:59;2.38;;;1.20;;
51738;SDS011;37815;52.692;6.226;2024-03-02T16:27:00;1.98;;;1.10;;
51738;SDS011;37815;52.692;6.226;2024-03-02T16:32:00;4.35;;;1.13;;
51738;SDS011;37815;52.692;6.226;2024-03-02T16:37:01;2.25;;;1.33;;
51738;SDS011;37815;52.692;6.226;2024-03-02T16:42:03;2.45;;;1.00;;
51738;SDS011;37815;52.692;6.226;2024-03-02T16:47:04;1.75;;;1.23;;
51738;SDS011;37815;52.692;6.226;2024-03-02T16:52:05;2.13;;;1.15;;
51738;SDS011;37815;52.692;6.226;2024-03-02T16:57:05;2.40;;;1.10;;
51738;SDS011;37815;52.692;6.226;2024-03-02T17:02:06;1.17;;;0.98;;
51738;SDS011;37815;52.692;6.226;2024-03-02T17:07:07;2.03;;;0.95;;
51738;SDS011;37815;52.692;6.226;2024-03-02T17:12:07;1.55;;;1.15;;
51738;SDS011;37815;52.692;6.226;2024-03-02T17:17:08;1.70;;;1.00;;
51738;SDS011;37815;52.692;6.226;2024-03-02T17:22:08;2.38;;;1.33;;
51738;SDS011;37815;52.692;6.226;2024-03-02T17:27:09;1.20;;;1.00;;
51738;SDS011;37815;52.692;6.226;2024-03-02T17:32:10;1.77;;;1.10;;
51738;SDS011;37815;52.692;6.226;2024-03-02T17:37:10;0.80;;;0.80;;
51738;SDS011;37815;52.692;6.226;2024-03-02T17:42:12;1.40;;;1.10;;
51738;SDS011;37815;52.692;6.226;2024-03-02T17:47:13;2.05;;;1.02;;
51738;SDS011;37815;52.692;6.226;2024-03-02T17:52:13;1.70;;;1.00;;
51738;SDS011;37815;52.692;6.226;2024-03-02T17:57:14;1.95;;;0.90;;
51738;SDS011;37815;52.692;6.226;2024-03-02T18:02:15;3.28;;;1.35;;
51738;SDS011;37815;52.692;6.226;2024-03-02T18:07:15;9.15;;;1.48;;
51738;SDS011;37815;52.692;6.226;2024-03-02T18:12:16;6.43;;;1.30;;
51738;SDS011;37815;52.692;6.226;2024-03-02T18:17:17;2.35;;;1.23;;
51738;SDS011;37815;52.692;6.226;2024-03-02T18:22:19;3.42;;;1.10;;
51738;SDS011;37815;52.692;6.226;2024-03-02T18:27:19;3.63;;;1.20;;
51738;SDS011;37815;52.692;6.226;2024-03-02T18:32:20;1.42;;;1.00;;
51738;SDS011;37815;52.692;6.226;2024-03-02T18:37:21;1.67;;;1.27;;
51738;SDS011;37815;52.692;6.226;2024-03-02T18:42:22;1.90;;;1.00;;
51738;SDS011;37815;52.692;6.226;2024-03-02T18:47:24;1.85;;;1.00;;
51738;SDS011;37815;52.692;6.226;2024-03-02T18:52:24;4.47;;;1.27;;
51738;SDS011;37815;52.692;6.226;2024-03-02T18:57:25;1.60;;;1.23;;
51738;SDS011;37815;52.692;6.226;2024-03-02T19:02:25;3.35;;;1.42;;
51738;SDS011;37815;52.692;6.226;2024-03-02T19:07:28;1.42;;;1.15;;
51738;SDS011;37815;52.692;6.226;2024-03-02T19:12:28;3.88;;;1.10;;
51738;SDS011;37815;52.692;6.226;2024-03-02T19:17:29;1.60;;;1.17;;
51738;SDS011;37815;52.692;6.226;2024-03-02T19:22:30;2.80;;;1.27;;
51738;SDS011;37815;52.692;6.226;2024-03-02T19:27:33;1.70;;;1.27;;
51738;SDS011;37815;52.692;6.226;2024-03-02T19:32:33;2.33;;;1.17;;
51738;SDS011;37815;52.692;6.226;2024-03-02T19:37:34;1.42;;;1.02;;
51738;SDS011;37815;52.692;6.226;2024-03-02T19:42:35;2.25;;;1.30;;
51738;SDS011;37815;52.692;6.226;2024-03-02T19:47:36;2.40;;;1.10;;
51738;SDS011;37815;52.692;6.226;2024-03-02T19:52:37;2.63;;;1.40;;
51738;SDS011;37815;52.692;6.226;2024-03-02T19:57:38;1.98;;;1.30;;
51738;SDS011;37815;52.692;6.226;2024-03-02T20:02:44;1.52;;;1.27;;
51738;SDS011;37815;52.692;6.226;2024-03-02T20:07:45;2.20;;;1.40;;
51738;SDS011;37815;52.692;6.226;2024-03-02T20:12:45;2.55;;;1.20;;
51738;SDS011;37815;52.692;6.226;2024-03-02T20:17:46;1.52;;;1.20;;
51738;SDS011;37815;52.692;6.226;2024-03-02T20:22:47;2.25;;;1.30;;
51738;SDS011;37815;52.692;6.226;2024-03-02T20:27:47;2.33;;;1.40;;
51738;SDS011;37815;52.692;6.226;2024-03-02T20:32:48;2.03;;;1.42;;
51738;SDS011;37815;52.692;6.226;2024-03-02T20:37:48;2.05;;;1.40;;
51738;SDS011;37815;52.692;6.226;2024-03-02T20:42:50;2.35;;;1.38;;
51738;SDS011;37815;52.692;6.226;2024-03-02T20:47:50;1.58;;;1.10;;
51738;SDS011;37815;52.692;6.226;2024-03-02T20:52:51;2.45;;;1.10;;
51738;SDS011;37815;52.692;6.226;2024-03-02T20:57:52;2.35;;;1.25;;
51738;SDS011;37815;52.692;6.226;2024-03-02T21:02:52;1.45;;;1.25;;
51738;SDS011;37815;52.692;6.226;2024-03-02T21:07:53;2.15;;;1.40;;
51738;SDS011;37815;52.692;6.226;2024-03-02T21:12:54;2.20;;;1.48;;
51738;SDS011;37815;52.692;6.226;2024-03-02T21:17:58;2.22;;;1.60;;
51738;SDS011;37815;52.692;6.226;2024-03-02T21:23:01;1.98;;;1.40;;
51738;SDS011;37815;52.692;6.226;2024-03-02T21:28:02;2.28;;;1.50;;
51738;SDS011;37815;52.692;6.226;2024-03-02T21:33:03;2.22;;;1.77;;
51738;SDS011;37815;52.692;6.226;2024-03-02T21:38:04;1.95;;;1.50;;
51738;SDS011;37815;52.692;6.226;2024-03-02T21:43:07;2.50;;;1.60;;
51738;SDS011;37815;52.692;6.226;2024-03-02T21:48:07;3.25;;;2.10;;
51738;SDS011;37815;52.692;6.226;2024-03-02T21:53:08;2.65;;;1.98;;
51738;SDS011;37815;52.692;6.226;2024-03-02T21:58:09;3.22;;;1.70;;
51738;SDS011;37815;52.692;6.226;2024-03-02T22:03:09;2.92;;;1.85;;
51738;SDS011;37815;52.692;6.226;2024-03-02T22:08:10;2.92;;;2.00;;
51738;SDS011;37815;52.692;6.226;2024-03-02T22:13:11;2.13;;;1.70;;
51738;SDS011;37815;52.692;6.226;2024-03-02T22:18:11;3.35;;;1.90;;
51738;SDS011;37815;52.692;6.226;2024-03-02T22:23:12;2.65;;;2.00;;
51738;SDS011;37815;52.692;6.226;2024-03-02T22:28:13;3.85;;;2.28;;
51738;SDS011;37815;52.692;6.226;2024-03-02T22:33:14;2.75;;;1.85;;
51738;SDS011;37815;52.692;6.226;2024-03-02T22:38:14;2.90;;;1.85;;
51738;SDS011;37815;52.692;6.226;2024-03-02T22:43:16;3.00;;;1.80;;
51738;SDS011;37815;52.692;6.226;2024-03-02T22:48:16;2.47;;;1.80;;
51738;SDS011;37815;52.692;6.226;2024-03-02T22:53:17;2.97;;;1.70;;
51738;SDS011;37815;52.692;6.226;2024-03-02T22:58:17;4.03;;;1.80;;
51738;SDS011;37815;52.692;6.226;2024-03-02T23:03:19;2.60;;;1.88;;
51738;SDS011;37815;52.692;6.226;2024-03-02T23:08:20;3.13;;;1.85;;
51738;SDS011;37815;52.692;6.226;2024-03-02T23:13:21;3.50;;;1.77;;
51738;SDS011;37815;52.692;6.226;2024-03-02T23:18:22;2.78;;;1.80;;
51738;SDS011;37815;52.692;6.226;2024-03-02T23:23:23;3.72;;;2.10;;
51738;SDS011;37815;52.692;6.226;2024-03-02T23:28:23;2.75;;;1.95;;
51738;SDS011;37815;52.692;6.226;2024-03-02T23:33:24;3.63;;;2.05;;
51738;SDS011;37815;52.692;6.226;2024-03-02T23:38:24;4.15;;;2.05;;
51738;SDS011;37815;52.692;6.226;2024-03-02T23:43:25;3.58;;;2.10;;
51738;SDS011;37815;52.692;6.226;2024-03-02T23:48:26;3.05;;;1.90;;
51738;SDS011;37815;52.692;6.226;2024-03-02T23:53:26;3.33;;;2.22;;
51738;SDS011;37815;52.692;6.226;2024-03-02T23:58:27;4.15;;;2.10;;
